sensor_id;sensor_type;location;lat;lon;timestamp;P1;durP1;ratioP1;P2;durP2;ratioP2
58152;SDS011;43967;51.634;5.566;2023-05-08T00:03:48;8.17;;;3.80;;
58152;SDS011;43967;51.634;5.566;2023-05-08T00:09:11;7.40;;;3.47;;
58152;SDS011;43967;51.634;5.566;2023-05-08T00:14:32;8.80;;;3.70;;
58152;SDS011;43967;51.634;5.566;2023-05-08T00:19:54;8.07;;;4.38;;
58152;SDS011;43967;51.634;5.566;2023-05-08T00:25:15;7.63;;;3.40;;
58152;SDS011;43967;51.634;5.566;2023-05-08T00:30:36;7.10;;;3.38;;
58152;SDS011;43967;51.634;5.566;2023-05-08T00:36:01;7.38;;;3.50;;
58152;SDS011;43967;51.634;5.566;2023-05-08T00:41:23;8.03;;;3.63;;
58152;SDS011;43967;51.634;5.566;2023-05-08T00:46:44;7.35;;;3.60;;
58152;SDS011;43967;51.634;5.566;2023-05-08T00:52:06;7.25;;;3.20;;
58152;SDS011;43967;51.634;5.566;2023-05-08T00:57:28;7.37;;;3.47;;
58152;SDS011;43967;51.634;5.566;2023-05-08T01:02:52;7.37;;;3.43;;
58152;SDS011;43967;51.634;5.566;2023-05-08T01:08:13;8.32;;;3.53;;
58152;SDS011;43967;51.634;5.566;2023-05-08T01:13:51;7.40;;;3.58;;
58152;SDS011;43967;51.634;5.566;2023-05-08T01:42:24;7.65;;;3.28;;
58152;SDS011;43967;51.634;5.566;2023-05-08T01:48:31;7.60;;;3.10;;
58152;SDS011;43967;51.634;5.566;2023-05-08T01:53:55;7.23;;;3.30;;
58152;SDS011;43967;51.634;5.566;2023-05-08T01:59:21;7.03;;;3.57;;
58152;SDS011;43967;51.634;5.566;2023-05-08T02:04:43;6.82;;;3.30;;
58152;SDS011;43967;51.634;5.566;2023-05-08T02:10:05;6.25;;;2.97;;
58152;SDS011;43967;51.634;5.566;2023-05-08T02:15:29;6.47;;;2.90;;
58152;SDS011;43967;51.634;5.566;2023-05-08T02:20:52;7.65;;;3.60;;
58152;SDS011;43967;51.634;5.566;2023-05-08T02:26:15;6.60;;;3.00;;
58152;SDS011;43967;51.634;5.566;2023-05-08T02:31:37;6.53;;;3.00;;
58152;SDS011;43967;51.634;5.566;2023-05-08T02:36:59;6.50;;;2.72;;
58152;SDS011;43967;51.634;5.566;2023-05-08T02:42:24;6.53;;;2.80;;
58152;SDS011;43967;51.634;5.566;2023-05-08T02:47:59;6.77;;;3.13;;
58152;SDS011;43967;51.634;5.566;2023-05-08T02:53:44;6.20;;;2.90;;
58152;SDS011;43967;51.634;5.566;2023-05-08T03:04:40;6.93;;;3.03;;
58152;SDS011;43967;51.634;5.566;2023-05-08T03:10:09;7.57;;;2.87;;
58152;SDS011;43967;51.634;5.566;2023-05-08T03:15:32;6.72;;;3.10;;
58152;SDS011;43967;51.634;5.566;2023-05-08T03:21:01;7.30;;;3.13;;
58152;SDS011;43967;51.634;5.566;2023-05-08T03:26:25;7.43;;;3.03;;
58152;SDS011;43967;51.634;5.566;2023-05-08T03:31:47;6.45;;;3.05;;
58152;SDS011;43967;51.634;5.566;2023-05-08T03:37:10;6.53;;;3.20;;
58152;SDS011;43967;51.634;5.566;2023-05-08T03:42:32;7.00;;;3.10;;
58152;SDS011;43967;51.634;5.566;2023-05-08T03:47:53;6.60;;;3.13;;
58152;SDS011;43967;51.634;5.566;2023-05-08T03:53:16;6.88;;;2.92;;
58152;SDS011;43967;51.634;5.566;2023-05-08T04:04:05;6.63;;;3.00;;
58152;SDS011;43967;51.634;5.566;2023-05-08T04:09:38;7.15;;;3.38;;
58152;SDS011;43967;51.634;5.566;2023-05-08T04:15:21;6.80;;;2.75;;
58152;SDS011;43967;51.634;5.566;2023-05-08T04:20:47;6.30;;;2.60;;
58152;SDS011;43967;51.634;5.566;2023-05-08T04:26:10;7.43;;;2.85;;
58152;SDS011;43967;51.634;5.566;2023-05-08T04:31:36;7.10;;;2.83;;
58152;SDS011;43967;51.634;5.566;2023-05-08T04:36:59;6.63;;;3.00;;
58152;SDS011;43967;51.634;5.566;2023-05-08T04:42:20;6.50;;;3.10;;
58152;SDS011;43967;51.634;5.566;2023-05-08T04:47:42;8.25;;;3.20;;
58152;SDS011;43967;51.634;5.566;2023-05-08T04:53:03;6.40;;;3.00;;
58152;SDS011;43967;51.634;5.566;2023-05-08T04:58:24;5.97;;;2.70;;
58152;SDS011;43967;51.634;5.566;2023-05-08T05:03:45;7.47;;;3.28;;
58152;SDS011;43967;51.634;5.566;2023-05-08T05:09:07;7.05;;;3.50;;
58152;SDS011;43967;51.634;5.566;2023-05-08T05:14:29;6.07;;;3.03;;
58152;SDS011;43967;51.634;5.566;2023-05-08T05:19:50;6.32;;;2.83;;
58152;SDS011;43967;51.634;5.566;2023-05-08T05:25:11;6.90;;;3.42;;
58152;SDS011;43967;51.634;5.566;2023-05-08T05:30:33;7.33;;;3.43;;
58152;SDS011;43967;51.634;5.566;2023-05-08T05:35:54;7.40;;;3.70;;
58152;SDS011;43967;51.634;5.566;2023-05-08T05:41:15;7.07;;;3.63;;
58152;SDS011;43967;51.634;5.566;2023-05-08T05:46:36;7.15;;;3.50;;
58152;SDS011;43967;51.634;5.566;2023-05-08T05:51:58;7.07;;;3.20;;
58152;SDS011;43967;51.634;5.566;2023-05-08T05:57:19;7.47;;;3.60;;
58152;SDS011;43967;51.634;5.566;2023-05-08T06:02:41;7.05;;;3.60;;
58152;SDS011;43967;51.634;5.566;2023-05-08T06:08:02;6.80;;;3.27;;
58152;SDS011;43967;51.634;5.566;2023-05-08T06:13:24;8.00;;;3.50;;
58152;SDS011;43967;51.634;5.566;2023-05-08T06:18:47;6.63;;;3.13;;
58152;SDS011;43967;51.634;5.566;2023-05-08T06:24:08;8.60;;;4.80;;
58152;SDS011;43967;51.634;5.566;2023-05-08T06:29:31;10.40;;;5.80;;
58152;SDS011;43967;51.634;5.566;2023-05-08T06:34:52;9.65;;;5.60;;
58152;SDS011;43967;51.634;5.566;2023-05-08T06:40:13;10.23;;;6.22;;
58152;SDS011;43967;51.634;5.566;2023-05-08T06:45:35;10.80;;;6.67;;
58152;SDS011;43967;51.634;5.566;2023-05-08T06:50:57;11.65;;;6.60;;
58152;SDS011;43967;51.634;5.566;2023-05-08T06:56:18;10.35;;;6.15;;
58152;SDS011;43967;51.634;5.566;2023-05-08T07:01:39;10.57;;;6.57;;
58152;SDS011;43967;51.634;5.566;2023-05-08T07:07:00;10.60;;;6.03;;
58152;SDS011;43967;51.634;5.566;2023-05-08T07:12:22;9.48;;;5.82;;
58152;SDS011;43967;51.634;5.566;2023-05-08T07:17:43;10.60;;;6.27;;
58152;SDS011;43967;51.634;5.566;2023-05-08T07:23:04;10.13;;;6.20;;
58152;SDS011;43967;51.634;5.566;2023-05-08T07:28:26;10.32;;;5.80;;
58152;SDS011;43967;51.634;5.566;2023-05-08T07:33:47;10.27;;;5.85;;
58152;SDS011;43967;51.634;5.566;2023-05-08T07:39:08;10.87;;;6.00;;
58152;SDS011;43967;51.634;5.566;2023-05-08T07:44:30;9.50;;;5.85;;
58152;SDS011;43967;51.634;5.566;2023-05-08T07:49:52;10.20;;;5.65;;
58152;SDS011;43967;51.634;5.566;2023-05-08T07:55:13;10.20;;;6.40;;
58152;SDS011;43967;51.634;5.566;2023-05-08T08:00:35;9.75;;;5.72;;
58152;SDS011;43967;51.634;5.566;2023-05-08T08:05:56;9.48;;;5.53;;
58152;SDS011;43967;51.634;5.566;2023-05-08T08:11:17;10.87;;;5.53;;
58152;SDS011;43967;51.634;5.566;2023-05-08T08:16:39;9.30;;;5.63;;
58152;SDS011;43967;51.634;5.566;2023-05-08T08:22:00;9.30;;;5.53;;
58152;SDS011;43967;51.634;5.566;2023-05-08T08:27:21;10.55;;;6.32;;
58152;SDS011;43967;51.634;5.566;2023-05-08T08:32:43;9.77;;;5.70;;
58152;SDS011;43967;51.634;5.566;2023-05-08T08:38:04;10.43;;;5.40;;
58152;SDS011;43967;51.634;5.566;2023-05-08T08:43:26;10.32;;;6.35;;
58152;SDS011;43967;51.634;5.566;2023-05-08T08:48:47;11.23;;;5.97;;
58152;SDS011;43967;51.634;5.566;2023-05-08T08:54:12;13.45;;;5.57;;
58152;SDS011;43967;51.634;5.566;2023-05-08T08:59:37;10.30;;;5.47;;
58152;SDS011;43967;51.634;5.566;2023-05-08T09:04:58;10.30;;;5.40;;
58152;SDS011;43967;51.634;5.566;2023-05-08T09:10:20;10.90;;;5.23;;
58152;SDS011;43967;51.634;5.566;2023-05-08T09:15:43;13.15;;;5.35;;
58152;SDS011;43967;51.634;5.566;2023-05-08T09:21:05;11.30;;;5.45;;
58152;SDS011;43967;51.634;5.566;2023-05-08T09:26:27;10.27;;;5.00;;
58152;SDS011;43967;51.634;5.566;2023-05-08T09:31:55;12.27;;;6.15;;
58152;SDS011;43967;51.634;5.566;2023-05-08T09:37:17;11.30;;;5.10;;
58152;SDS011;43967;51.634;5.566;2023-05-08T09:42:38;12.07;;;5.67;;
58152;SDS011;43967;51.634;5.566;2023-05-08T09:47:59;10.57;;;5.32;;
58152;SDS011;43967;51.634;5.566;2023-05-08T09:53:29;9.88;;;5.00;;
58152;SDS011;43967;51.634;5.566;2023-05-08T09:58:50;9.93;;;5.40;;
58152;SDS011;43967;51.634;5.566;2023-05-08T10:04:12;11.23;;;4.90;;
58152;SDS011;43967;51.634;5.566;2023-05-08T10:09:33;13.60;;;5.63;;
58152;SDS011;43967;51.634;5.566;2023-05-08T10:14:54;11.65;;;5.07;;
58152;SDS011;43967;51.634;5.566;2023-05-08T10:20:16;10.10;;;4.90;;
58152;SDS011;43967;51.634;5.566;2023-05-08T10:25:41;9.70;;;4.90;;
58152;SDS011;43967;51.634;5.566;2023-05-08T10:31:07;8.98;;;4.93;;
58152;SDS011;43967;51.634;5.566;2023-05-08T10:36:32;9.50;;;4.60;;
58152;SDS011;43967;51.634;5.566;2023-05-08T10:41:56;9.13;;;4.80;;
58152;SDS011;43967;51.634;5.566;2023-05-08T10:47:29;9.43;;;5.15;;
58152;SDS011;43967;51.634;5.566;2023-05-08T10:52:55;10.10;;;5.00;;
58152;SDS011;43967;51.634;5.566;2023-05-08T11:03:51;9.80;;;4.53;;
58152;SDS011;43967;51.634;5.566;2023-05-08T11:09:14;12.20;;;5.68;;
58152;SDS011;43967;51.634;5.566;2023-05-08T11:14:53;10.53;;;4.67;;
58152;SDS011;43967;51.634;5.566;2023-05-08T11:20:22;9.18;;;5.30;;
58152;SDS011;43967;51.634;5.566;2023-05-08T11:26:05;8.35;;;4.22;;
58152;SDS011;43967;51.634;5.566;2023-05-08T11:31:48;9.20;;;4.97;;
58152;SDS011;43967;51.634;5.566;2023-05-08T11:37:10;9.07;;;5.57;;
58152;SDS011;43967;51.634;5.566;2023-05-08T11:42:39;7.60;;;4.07;;
58152;SDS011;43967;51.634;5.566;2023-05-08T11:48:00;10.13;;;4.80;;
58152;SDS011;43967;51.634;5.566;2023-05-08T11:53:22;8.57;;;4.70;;
58152;SDS011;43967;51.634;5.566;2023-05-08T11:58:43;8.23;;;4.68;;
58152;SDS011;43967;51.634;5.566;2023-05-08T12:04:05;8.48;;;4.68;;
58152;SDS011;43967;51.634;5.566;2023-05-08T12:09:29;8.90;;;4.73;;
58152;SDS011;43967;51.634;5.566;2023-05-08T12:14:50;8.50;;;4.78;;
58152;SDS011;43967;51.634;5.566;2023-05-08T12:20:14;9.02;;;4.63;;
58152;SDS011;43967;51.634;5.566;2023-05-08T12:25:38;8.03;;;4.63;;
58152;SDS011;43967;51.634;5.566;2023-05-08T12:31:00;9.35;;;4.78;;
58152;SDS011;43967;51.634;5.566;2023-05-08T12:36:21;9.27;;;4.60;;
58152;SDS011;43967;51.634;5.566;2023-05-08T12:41:52;9.40;;;4.70;;
58152;SDS011;43967;51.634;5.566;2023-05-08T12:47:13;8.80;;;4.77;;
58152;SDS011;43967;51.634;5.566;2023-05-08T12:52:34;9.70;;;4.80;;
58152;SDS011;43967;51.634;5.566;2023-05-08T12:58:09;9.02;;;5.00;;
58152;SDS011;43967;51.634;5.566;2023-05-08T13:03:31;8.87;;;4.80;;
58152;SDS011;43967;51.634;5.566;2023-05-08T13:08:53;9.80;;;5.00;;
58152;SDS011;43967;51.634;5.566;2023-05-08T13:14:14;8.30;;;4.50;;
58152;SDS011;43967;51.634;5.566;2023-05-08T13:19:35;9.30;;;4.90;;
58152;SDS011;43967;51.634;5.566;2023-05-08T13:24:57;8.60;;;4.68;;
58152;SDS011;43967;51.634;5.566;2023-05-08T13:30:18;9.23;;;4.75;;
58152;SDS011;43967;51.634;5.566;2023-05-08T13:35:39;9.73;;;5.10;;
58152;SDS011;43967;51.634;5.566;2023-05-08T13:41:01;9.80;;;4.83;;
58152;SDS011;43967;51.634;5.566;2023-05-08T13:46:22;10.60;;;4.85;;
58152;SDS011;43967;51.634;5.566;2023-05-08T13:51:44;8.90;;;4.30;;
58152;SDS011;43967;51.634;5.566;2023-05-08T13:57:05;9.27;;;5.00;;
58152;SDS011;43967;51.634;5.566;2023-05-08T14:02:26;9.25;;;4.93;;
58152;SDS011;43967;51.634;5.566;2023-05-08T14:07:48;9.15;;;4.60;;
58152;SDS011;43967;51.634;5.566;2023-05-08T14:13:09;9.17;;;4.93;;
58152;SDS011;43967;51.634;5.566;2023-05-08T14:18:30;9.10;;;4.78;;
58152;SDS011;43967;51.634;5.566;2023-05-08T14:23:52;8.30;;;4.43;;
58152;SDS011;43967;51.634;5.566;2023-05-08T14:29:13;9.00;;;5.50;;
58152;SDS011;43967;51.634;5.566;2023-05-08T14:34:35;8.90;;;5.23;;
58152;SDS011;43967;51.634;5.566;2023-05-08T14:39:56;9.05;;;5.03;;
58152;SDS011;43967;51.634;5.566;2023-05-08T14:45:17;8.10;;;4.90;;
58152;SDS011;43967;51.634;5.566;2023-05-08T14:50:38;9.17;;;4.80;;
58152;SDS011;43967;51.634;5.566;2023-05-08T14:56:01;9.00;;;5.13;;
58152;SDS011;43967;51.634;5.566;2023-05-08T15:01:22;10.20;;;4.68;;
58152;SDS011;43967;51.634;5.566;2023-05-08T15:06:43;9.50;;;4.90;;
58152;SDS011;43967;51.634;5.566;2023-05-08T15:12:05;9.75;;;5.10;;
58152;SDS011;43967;51.634;5.566;2023-05-08T15:17:26;9.60;;;5.70;;
58152;SDS011;43967;51.634;5.566;2023-05-08T15:22:47;8.93;;;5.17;;
58152;SDS011;43967;51.634;5.566;2023-05-08T15:28:08;9.40;;;4.60;;
58152;SDS011;43967;51.634;5.566;2023-05-08T15:33:30;10.88;;;5.63;;
58152;SDS011;43967;51.634;5.566;2023-05-08T15:38:51;11.32;;;6.10;;
58152;SDS011;43967;51.634;5.566;2023-05-08T15:44:12;13.50;;;5.73;;
58152;SDS011;43967;51.634;5.566;2023-05-08T15:49:34;10.68;;;5.90;;
58152;SDS011;43967;51.634;5.566;2023-05-08T15:54:55;15.55;;;6.20;;
58152;SDS011;43967;51.634;5.566;2023-05-08T16:00:16;12.90;;;6.07;;
58152;SDS011;43967;51.634;5.566;2023-05-08T16:05:38;12.35;;;6.35;;
58152;SDS011;43967;51.634;5.566;2023-05-08T16:10:59;12.60;;;6.57;;
58152;SDS011;43967;51.634;5.566;2023-05-08T16:16:20;11.30;;;6.17;;
58152;SDS011;43967;51.634;5.566;2023-05-08T16:21:44;11.70;;;6.30;;
58152;SDS011;43967;51.634;5.566;2023-05-08T16:27:05;13.05;;;5.90;;
58152;SDS011;43967;51.634;5.566;2023-05-08T16:32:27;11.35;;;5.55;;
58152;SDS011;43967;51.634;5.566;2023-05-08T16:37:48;11.93;;;6.20;;
58152;SDS011;43967;51.634;5.566;2023-05-08T16:43:09;12.05;;;6.28;;
58152;SDS011;43967;51.634;5.566;2023-05-08T16:48:30;11.35;;;5.80;;
58152;SDS011;43967;51.634;5.566;2023-05-08T16:53:52;11.33;;;6.10;;
58152;SDS011;43967;51.634;5.566;2023-05-08T16:59:13;11.18;;;6.10;;
58152;SDS011;43967;51.634;5.566;2023-05-08T17:04:34;11.05;;;6.22;;
58152;SDS011;43967;51.634;5.566;2023-05-08T17:09:56;11.10;;;5.83;;
58152;SDS011;43967;51.634;5.566;2023-05-08T17:15:17;10.40;;;5.33;;
58152;SDS011;43967;51.634;5.566;2023-05-08T17:20:38;10.35;;;5.78;;
58152;SDS011;43967;51.634;5.566;2023-05-08T17:26:00;13.07;;;6.50;;
58152;SDS011;43967;51.634;5.566;2023-05-08T17:31:21;13.03;;;6.00;;
58152;SDS011;43967;51.634;5.566;2023-05-08T17:36:42;9.85;;;5.75;;
58152;SDS011;43967;51.634;5.566;2023-05-08T17:42:04;10.55;;;5.72;;
58152;SDS011;43967;51.634;5.566;2023-05-08T17:47:25;9.67;;;5.30;;
58152;SDS011;43967;51.634;5.566;2023-05-08T17:52:47;11.07;;;6.07;;
58152;SDS011;43967;51.634;5.566;2023-05-08T17:58:08;11.07;;;5.88;;
58152;SDS011;43967;51.634;5.566;2023-05-08T18:03:29;10.50;;;5.40;;
58152;SDS011;43967;51.634;5.566;2023-05-08T18:08:50;11.13;;;6.17;;
58152;SDS011;43967;51.634;5.566;2023-05-08T18:14:12;10.55;;;5.95;;
58152;SDS011;43967;51.634;5.566;2023-05-08T18:19:33;12.10;;;6.43;;
58152;SDS011;43967;51.634;5.566;2023-05-08T18:24:54;18.50;;;8.20;;
58152;SDS011;43967;51.634;5.566;2023-05-08T18:30:16;17.05;;;8.55;;
58152;SDS011;43967;51.634;5.566;2023-05-08T18:35:37;17.55;;;8.18;;
58152;SDS011;43967;51.634;5.566;2023-05-08T18:41:02;16.43;;;8.23;;
58152;SDS011;43967;51.634;5.566;2023-05-08T18:46:23;15.82;;;7.70;;
58152;SDS011;43967;51.634;5.566;2023-05-08T18:51:45;21.85;;;8.77;;
58152;SDS011;43967;51.634;5.566;2023-05-08T18:57:06;19.03;;;9.50;;
58152;SDS011;43967;51.634;5.566;2023-05-08T19:02:27;18.73;;;8.50;;
58152;SDS011;43967;51.634;5.566;2023-05-08T19:07:48;19.15;;;8.65;;
58152;SDS011;43967;51.634;5.566;2023-05-08T19:13:10;18.17;;;8.52;;
58152;SDS011;43967;51.634;5.566;2023-05-08T19:18:31;16.97;;;8.43;;
58152;SDS011;43967;51.634;5.566;2023-05-08T19:23:52;18.38;;;8.57;;
58152;SDS011;43967;51.634;5.566;2023-05-08T19:29:13;17.15;;;8.52;;
58152;SDS011;43967;51.634;5.566;2023-05-08T19:34:35;17.67;;;9.33;;
58152;SDS011;43967;51.634;5.566;2023-05-08T19:39:56;20.20;;;9.75;;
58152;SDS011;43967;51.634;5.566;2023-05-08T19:45:17;19.65;;;8.57;;
58152;SDS011;43967;51.634;5.566;2023-05-08T19:50:39;17.40;;;8.73;;
58152;SDS011;43967;51.634;5.566;2023-05-08T19:56:00;15.63;;;8.70;;
58152;SDS011;43967;51.634;5.566;2023-05-08T20:01:21;16.63;;;9.02;;
58152;SDS011;43967;51.634;5.566;2023-05-08T20:06:42;19.05;;;9.25;;
58152;SDS011;43967;51.634;5.566;2023-05-08T20:12:04;14.73;;;7.80;;
58152;SDS011;43967;51.634;5.566;2023-05-08T20:17:25;15.60;;;8.10;;
58152;SDS011;43967;51.634;5.566;2023-05-08T20:22:46;19.52;;;8.90;;
58152;SDS011;43967;51.634;5.566;2023-05-08T20:28:08;16.80;;;8.83;;
58152;SDS011;43967;51.634;5.566;2023-05-08T20:33:29;16.48;;;7.78;;
58152;SDS011;43967;51.634;5.566;2023-05-08T20:38:50;15.55;;;8.18;;
58152;SDS011;43967;51.634;5.566;2023-05-08T20:44:12;14.67;;;8.37;;
58152;SDS011;43967;51.634;5.566;2023-05-08T20:49:33;17.53;;;8.20;;
58152;SDS011;43967;51.634;5.566;2023-05-08T20:54:54;18.67;;;8.23;;
58152;SDS011;43967;51.634;5.566;2023-05-08T21:00:15;16.58;;;8.32;;
58152;SDS011;43967;51.634;5.566;2023-05-08T21:05:37;16.63;;;8.13;;
58152;SDS011;43967;51.634;5.566;2023-05-08T21:10:59;15.75;;;7.47;;
58152;SDS011;43967;51.634;5.566;2023-05-08T21:16:20;15.80;;;8.23;;
58152;SDS011;43967;51.634;5.566;2023-05-08T21:21:42;14.27;;;7.33;;
58152;SDS011;43967;51.634;5.566;2023-05-08T21:27:04;14.40;;;7.80;;
58152;SDS011;43967;51.634;5.566;2023-05-08T21:32:25;14.98;;;7.82;;
58152;SDS011;43967;51.634;5.566;2023-05-08T21:37:46;14.17;;;7.77;;
58152;SDS011;43967;51.634;5.566;2023-05-08T21:43:10;15.10;;;8.57;;
58152;SDS011;43967;51.634;5.566;2023-05-08T21:48:32;15.15;;;8.52;;
58152;SDS011;43967;51.634;5.566;2023-05-08T21:53:53;17.75;;;8.88;;
58152;SDS011;43967;51.634;5.566;2023-05-08T21:59:15;16.10;;;7.80;;
58152;SDS011;43967;51.634;5.566;2023-05-08T22:04:36;15.48;;;9.00;;
58152;SDS011;43967;51.634;5.566;2023-05-08T22:09:57;16.15;;;8.55;;
58152;SDS011;43967;51.634;5.566;2023-05-08T22:15:19;14.23;;;7.97;;
58152;SDS011;43967;51.634;5.566;2023-05-08T22:20:40;15.32;;;8.50;;
58152;SDS011;43967;51.634;5.566;2023-05-08T22:26:01;16.27;;;8.18;;
58152;SDS011;43967;51.634;5.566;2023-05-08T22:31:23;16.10;;;8.33;;
58152;SDS011;43967;51.634;5.566;2023-05-08T22:36:44;15.23;;;8.33;;
58152;SDS011;43967;51.634;5.566;2023-05-08T22:42:05;16.15;;;7.95;;
58152;SDS011;43967;51.634;5.566;2023-05-08T22:47:26;15.50;;;9.00;;
58152;SDS011;43967;51.634;5.566;2023-05-08T22:52:48;14.77;;;8.17;;
58152;SDS011;43967;51.634;5.566;2023-05-08T22:58:09;14.93;;;8.27;;
58152;SDS011;43967;51.634;5.566;2023-05-08T23:03:30;15.43;;;8.45;;
58152;SDS011;43967;51.634;5.566;2023-05-08T23:08:52;15.27;;;8.23;;
58152;SDS011;43967;51.634;5.566;2023-05-08T23:14:13;14.73;;;7.60;;
58152;SDS011;43967;51.634;5.566;2023-05-08T23:19:34;15.00;;;8.10;;
58152;SDS011;43967;51.634;5.566;2023-05-08T23:24:55;14.10;;;8.17;;
58152;SDS011;43967;51.634;5.566;2023-05-08T23:30:17;14.37;;;8.17;;
58152;SDS011;43967;51.634;5.566;2023-05-08T23:35:38;15.23;;;7.93;;
58152;SDS011;43967;51.634;5.566;2023-05-08T23:40:59;14.20;;;8.10;;
58152;SDS011;43967;51.634;5.566;2023-05-08T23:46:20;13.83;;;7.83;;
58152;SDS011;43967;51.634;5.566;2023-05-08T23:51:42;14.60;;;8.02;;
58152;SDS011;43967;51.634;5.566;2023-05-08T23:57:03;13.50;;;7.43;;
